Time;durP1;ratioP1;P1;durP2;ratioP2;P2;SDS_P1;SDS_P2;PMS_P1;PMS_P2;Temp;Humidity;BMP_temperature;BMP_pressure;BME280_temperature;BME280_humidity;BME280_pressure;Samples;Min_cycle;Max_cycle;Signal;HPM_P1;HPM_P2
2023/01/23 00:04:01;;;;;;;31.30;14.70;;;;;;;3.09;91.92;102281.04;682586;1259;138662;-79
2023/01/23 00:19:04;;;;;;;33.30;17.60;;;;;;;3.00;92.38;102283.50;682532;1259;139055;-78
2023/01/23 00:34:12;;;;;;;27.70;13.80;;;;;;;3.03;92.74;102318.02;682524;1263;139279;-79
2023/01/23 00:49:16;;;;;;;44.70;16.80;;;;;;;2.99;93.12;102330.02;682811;1259;138703;-78
2023/01/23 01:04:20;;;;;;;30.30;15.40;;;;;;;3.02;93.46;102326.16;682718;1259;139929;-78
2023/01/23 01:19:23;;;;;;;34.10;14.70;;;;;;;2.95;93.67;102327.02;682447;1260;139176;-79
2023/01/23 01:34:26;;;;;;;25.40;13.70;;;;;;;2.98;93.77;102324.00;682738;1259;139215;-79
2023/01/23 01:49:32;;;;;;;34.60;16.50;;;;;;;2.89;94.31;102340.46;682796;1262;139052;-79
2023/01/23 02:04:41;;;;;;;32.20;14.60;;;;;;;3.04;94.62;102361.74;682688;1261;139981;-78
2023/01/23 02:20:07;;;;;;;33.20;17.10;;;;;;;3.02;94.62;102368.70;682695;1259;139554;-79
2023/01/23 02:35:25;;;;;;;26.90;14.20;;;;;;;2.93;94.54;102378.73;682759;1264;138710;-79
2023/01/23 02:50:29;;;;;;;27.20;14.70;;;;;;;2.85;94.58;102388.60;682721;1263;139312;-79
2023/01/23 03:05:33;;;;;;;26.80;13.30;;;;;;;2.81;94.48;102380.57;682681;1263;138917;-79
2023/01/23 03:20:40;;;;;;;34.80;18.40;;;;;;;2.74;94.88;102380.20;682573;1260;139624;-79
2023/01/23 03:35:43;;;;;;;24.80;12.00;;;;;;;2.79;94.95;102391.50;682817;1259;139230;-79
2023/01/23 03:50:47;;;;;;;31.40;15.00;;;;;;;2.72;94.63;102385.09;682682;1262;138839;-78
2023/01/23 04:05:57;;;;;;;21.10;11.20;;;;;;;2.64;94.90;102387.34;682771;1262;139254;-78
2023/01/23 04:21:01;;;;;;;24.10;14.10;;;;;;;2.69;94.49;102409.00;682422;1260;138775;-79
2023/01/23 04:36:06;;;;;;;26.80;13.00;;;;;;;2.57;94.56;102413.55;682543;1260;138912;-79
2023/01/23 04:51:10;;;;;;;26.10;12.30;;;;;;;2.43;94.56;102413.84;682478;1263;140053;-78
2023/01/23 05:06:13;;;;;;;71.80;38.60;;;;;;;2.37;95.37;102426.58;682852;1259;139963;-79
2023/01/23 05:21:18;;;;;;;34.50;18.40;;;;;;;2.52;95.11;102450.10;682732;1263;138836;-79
2023/01/23 05:36:21;;;;;;;41.50;17.50;;;;;;;2.66;95.01;102463.14;682488;1263;139583;-79
2023/01/23 05:51:30;;;;;;;67.30;36.80;;;;;;;2.75;95.11;102478.52;682359;1263;138862;-80
2023/01/23 06:06:34;;;;;;;453.40;179.40;;;;;;;2.79;95.13;102489.48;682542;1263;138574;-81
2023/01/23 06:21:37;;;;;;;154.60;51.40;;;;;;;2.82;95.08;102511.36;682595;1263;140441;-81
2023/01/23 06:36:41;;;;;;;94.50;39.00;;;;;;;2.86;95.23;102528.23;682600;1263;139083;-82
2023/01/23 06:51:44;;;;;;;44.60;21.70;;;;;;;2.93;95.36;102539.86;682611;1265;139195;-81
2023/01/23 07:06:48;;;;;;;66.00;33.20;;;;;;;2.90;95.25;102550.98;683052;1262;139947;-81
2023/01/23 07:21:53;;;;;;;112.20;49.00;;;;;;;2.86;94.94;102570.93;682763;1263;139657;-82
2023/01/23 07:36:56;;;;;;;56.20;26.30;;;;;;;2.88;95.32;102580.58;682860;1262;139175;-81
2023/01/23 07:51:59;;;;;;;106.80;41.40;;;;;;;3.05;95.40;102588.90;682880;1263;138748;-82
2023/01/23 08:07:03;;;;;;;44.30;22.10;;;;;;;3.20;95.26;102598.98;682946;1262;138947;-81
2023/01/23 08:22:06;;;;;;;62.40;30.90;;;;;;;3.32;94.69;102604.43;682733;1265;138647;-81
2023/01/23 08:37:09;;;;;;;39.00;17.90;;;;;;;3.35;94.26;102610.95;682828;1257;139708;-81
2023/01/23 08:52:12;;;;;;;47.40;26.10;;;;;;;3.49;93.26;102610.83;682797;1264;140174;-81
2023/01/23 09:07:15;;;;;;;199.80;66.90;;;;;;;3.69;92.94;102621.48;682982;1261;139014;-81
2023/01/23 09:22:19;;;;;;;88.30;39.60;;;;;;;3.87;92.39;102621.27;682725;1262;139850;-81
2023/01/23 09:37:22;;;;;;;712.60;256.50;;;;;;;3.97;92.12;102622.24;682819;1258;140037;-80
2023/01/23 09:52:33;;;;;;;171.60;60.40;;;;;;;4.02;90.86;102622.84;682766;1262;139264;-80
2023/01/23 10:08:23;;;;;;;103.10;44.70;;;;;;;4.23;90.92;102613.84;683198;1262;139029;-80
2023/01/23 10:23:47;;;;;;;264.40;81.20;;;;;;;4.19;89.93;102606.66;682810;1257;139477;-79
2023/01/23 10:38:51;;;;;;;149.00;59.70;;;;;;;4.27;89.63;102600.58;682595;1260;138970;-80
2023/01/23 10:54:22;;;;;;;184.20;68.00;;;;;;;4.39;89.05;102606.68;683084;1260;139013;-79
2023/01/23 11:09:51;;;;;;;83.40;40.20;;;;;;;4.44;88.20;102613.16;682801;1262;139812;-81
2023/01/23 11:24:55;;;;;;;206.70;81.40;;;;;;;4.61;88.99;102609.43;682737;1259;138931;-80
2023/01/23 11:40:03;;;;;;;78.30;34.20;;;;;;;4.62;89.19;102613.75;682605;1260;139098;-80
2023/01/23 11:55:47;;;;;;;41.90;22.00;;;;;;;4.74;89.24;102612.73;683091;1259;141167;-79
2023/01/23 12:11:10;;;;;;;55.40;25.90;;;;;;;4.75;89.03;102604.73;683015;1262;139688;-80
2023/01/23 12:26:21;;;;;;;56.80;28.50;;;;;;;4.87;88.97;102613.80;682785;1260;139594;-78
2023/01/23 12:41:36;;;;;;;46.80;24.30;;;;;;;4.82;88.71;102631.78;682784;1263;138982;-78
2023/01/23 12:56:41;;;;;;;99.00;35.50;;;;;;;4.76;88.32;102625.70;682673;1263;138919;-79
2023/01/23 13:12:23;;;;;;;91.50;35.10;;;;;;;4.70;88.42;102623.41;682958;1261;140335;-79
2023/01/23 13:27:41;;;;;;;151.50;51.80;;;;;;;4.68;88.06;102631.27;682951;1257;138779;-78
2023/01/23 13:42:44;;;;;;;110.10;42.10;;;;;;;4.60;87.25;102641.71;683191;1263;138374;-78
2023/01/23 13:57:48;;;;;;;50.10;29.70;;;;;;;4.54;87.63;102642.53;682978;1262;142691;-79
2023/01/23 14:13:31;;;;;;;118.70;47.10;;;;;;;4.31;87.42;102643.98;681842;1267;138923;-79
2023/01/23 14:29:00;;;;;;;85.10;38.70;;;;;;;4.16;87.69;102648.98;680546;1263;140806;-78
2023/01/23 14:44:03;;;;;;;92.60;39.10;;;;;;;3.99;87.73;102649.90;681264;1267;139667;-79
2023/01/23 14:59:25;;;;;;;68.10;34.00;;;;;;;3.94;87.62;102651.74;682906;1259;140069;-78
2023/01/23 15:14:35;;;;;;;97.40;45.70;;;;;;;3.78;88.05;102657.45;682855;1260;138914;-77
2023/01/23 15:29:38;;;;;;;117.40;52.50;;;;;;;3.71;88.26;102665.05;683098;1257;139438;-78
2023/01/23 15:44:42;;;;;;;124.50;51.20;;;;;;;3.60;88.29;102669.95;682557;1262;139236;-80
2023/01/23 15:59:46;;;;;;;106.40;42.20;;;;;;;3.62;88.58;102678.77;682936;1261;138825;-78
2023/01/23 16:14:50;;;;;;;155.00;66.30;;;;;;;3.54;88.65;102685.48;682667;1260;139243;-79
2023/01/23 16:29:54;;;;;;;378.80;169.50;;;;;;;3.56;88.77;102681.63;683142;1259;139850;-78
2023/01/23 16:44:57;;;;;;;199.20;76.60;;;;;;;3.55;89.21;102688.39;682462;1262;139974;-79
2023/01/23 17:00:02;;;;;;;108.60;47.40;;;;;;;3.53;89.24;102697.27;683000;1260;139082;-77
2023/01/23 17:15:06;;;;;;;213.70;84.40;;;;;;;3.44;89.69;102704.54;682861;1263;139934;-78
2023/01/23 17:30:22;;;;;;;125.20;53.30;;;;;;;3.39;89.63;102706.19;682948;1259;140382;-78
2023/01/23 17:45:27;;;;;;;108.70;50.20;;;;;;;3.41;89.48;102711.00;682565;1264;138911;-78
2023/01/23 18:00:30;;;;;;;85.30;40.20;;;;;;;3.40;89.58;102716.89;683099;1263;139886;-78
2023/01/23 18:15:39;;;;;;;96.40;42.60;;;;;;;3.41;89.67;102721.73;682906;1260;139278;-79
2023/01/23 18:30:58;;;;;;;163.40;60.20;;;;;;;3.41;89.49;102717.05;683023;1262;139710;-78
2023/01/23 18:46:05;;;;;;;175.20;70.70;;;;;;;3.38;89.66;102720.23;682619;1263;139686;-79
2023/01/23 19:01:33;;;;;;;127.50;54.70;;;;;;;3.31;89.97;102726.06;682839;1262;139509;-78
2023/01/23 19:16:44;;;;;;;76.60;33.90;;;;;;;3.19;90.66;102723.86;682642;1262;139179;-79
2023/01/23 19:31:48;;;;;;;73.00;34.40;;;;;;;3.18;90.83;102732.35;682894;1259;138724;-79
2023/01/23 19:47:07;;;;;;;93.60;42.90;;;;;;;3.15;90.94;102740.50;682898;1262;140307;-79
2023/01/23 20:02:18;;;;;;;87.90;36.80;;;;;;;3.13;90.82;102738.98;682572;1260;139634;-79
2023/01/23 20:17:22;;;;;;;74.90;30.60;;;;;;;3.09;91.12;102726.27;683110;1273;139232;-78
2023/01/23 20:32:33;;;;;;;109.00;49.20;;;;;;;3.10;91.22;102730.91;682462;1275;139466;-80
2023/01/23 20:47:40;;;;;;;78.50;33.50;;;;;;;3.03;91.34;102743.17;682672;1263;140489;-79
2023/01/23 21:02:43;;;;;;;59.90;27.50;;;;;;;2.99;91.72;102747.20;682436;1264;139942;-80
2023/01/23 21:17:54;;;;;;;73.20;29.70;;;;;;;3.01;91.76;102759.96;682681;1262;138985;-80
2023/01/23 21:33:04;;;;;;;58.20;23.50;;;;;;;2.97;92.05;102766.77;677482;1259;7084576;-80
2023/01/23 21:48:11;;;;;;;56.20;22.50;;;;;;;2.96;92.18;102769.73;682942;1263;138775;-79
2023/01/23 22:03:16;;;;;;;57.10;24.80;;;;;;;2.93;92.47;102766.84;682393;1260;140824;-79
2023/01/23 22:18:19;;;;;;;72.60;28.50;;;;;;;2.91;93.13;102754.08;682749;1260;138505;-80
2023/01/23 22:33:22;;;;;;;98.70;36.70;;;;;;;2.92;93.26;102743.51;682634;1263;139593;-79
2023/01/23 22:48:48;;;;;;;81.90;30.20;;;;;;;2.90;93.24;102735.95;682846;1260;138668;-79
2023/01/23 23:03:58;;;;;;;68.50;27.90;;;;;;;2.90;93.24;102735.42;682487;1265;138925;-79
2023/01/23 23:19:03;;;;;;;107.50;34.00;;;;;;;2.95;93.27;102747.79;682817;1260;138798;-79
2023/01/23 23:34:07;;;;;;;66.50;24.90;;;;;;;2.92;93.60;102753.70;682881;1263;139538;-79
2023/01/23 23:49:10;;;;;;;155.10;43.70;;;;;;;2.94;93.60;102750.92;682680;1262;139019;-79
